createdAt,value
2022-08-21T00:01:51.630Z,14.96
2022-08-21T00:04:22.091Z,15.01
2022-08-21T00:06:50.444Z,15.10
2022-08-21T00:09:17.335Z,15.19
2022-08-21T00:11:44.526Z,15.29
2022-08-21T00:14:12.001Z,15.35
2022-08-21T00:16:39.955Z,15.34
2022-08-21T00:19:07.859Z,15.35
2022-08-21T00:21:35.692Z,15.36
2022-08-21T00:24:02.504Z,15.40
2022-08-21T00:26:29.533Z,15.41
2022-08-21T00:28:56.257Z,15.36
2022-08-21T00:31:26.115Z,15.31
2022-08-21T00:33:52.971Z,15.27
2022-08-21T00:36:27.498Z,15.17
2022-08-21T00:38:54.441Z,15.15
2022-08-21T00:41:37.719Z,15.14
2022-08-21T00:44:10.496Z,15.13
2022-08-21T00:46:38.709Z,15.11
2022-08-21T00:49:07.882Z,15.09
2022-08-21T00:51:40.357Z,15.09
2022-08-21T00:54:18.453Z,15.04
2022-08-21T00:56:49.197Z,15.00
2022-08-21T00:59:18.793Z,14.99
2022-08-21T01:01:46.005Z,14.99
2022-08-21T01:04:13.393Z,15.02
2022-08-21T01:06:40.429Z,15.00
2022-08-21T01:09:07.414Z,15.02
2022-08-21T01:11:34.727Z,15.01
2022-08-21T01:14:01.985Z,14.96
2022-08-21T01:16:29.939Z,14.88
2022-08-21T01:18:57.048Z,14.78
2022-08-21T01:21:28.319Z,14.69
2022-08-21T01:23:58.079Z,14.64
2022-08-21T01:26:34.341Z,14.60
2022-08-21T01:29:32.372Z,14.54
2022-08-21T01:32:00.790Z,14.44
2022-08-21T01:34:27.602Z,14.40
2022-08-21T01:36:54.705Z,14.32
2022-08-21T01:39:21.637Z,14.28
2022-08-21T01:41:48.580Z,14.23
2022-08-21T01:44:15.670Z,14.16
2022-08-21T01:46:42.430Z,14.14
2022-08-21T01:49:09.688Z,14.11
2022-08-21T01:51:36.691Z,14.05
2022-08-21T01:54:03.734Z,14.04
2022-08-21T01:56:38.278Z,13.98
2022-08-21T01:59:05.038Z,13.93
2022-08-21T02:01:31.739Z,13.91
2022-08-21T02:04:00.598Z,13.87
2022-08-21T02:06:28.434Z,13.83
2022-08-21T02:08:55.474Z,13.81
2022-08-21T02:11:22.496Z,13.81
2022-08-21T02:13:49.266Z,13.79
2022-08-21T02:16:19.204Z,13.74
2022-08-21T02:18:47.389Z,13.69
2022-08-21T02:21:14.057Z,13.67
2022-08-21T02:23:40.802Z,13.61
2022-08-21T02:26:08.717Z,13.59
2022-08-21T02:28:36.496Z,13.56
2022-08-21T02:31:03.999Z,13.55
2022-08-21T02:33:31.028Z,13.53
2022-08-21T02:35:58.473Z,13.51
2022-08-21T02:38:28.611Z,13.47
2022-08-21T02:40:56.582Z,13.43
2022-08-21T02:43:25.541Z,13.42
2022-08-21T02:45:53.189Z,13.41
2022-08-21T02:48:24.437Z,13.36
2022-08-21T02:50:57.239Z,13.33
2022-08-21T02:53:24.213Z,13.30
2022-08-21T02:55:52.936Z,13.30
2022-08-21T02:58:25.140Z,13.28
2022-08-21T03:00:52.437Z,13.26
2022-08-21T03:03:19.641Z,13.24
2022-08-21T03:05:46.503Z,13.22
2022-08-21T03:08:15.739Z,13.20
2022-08-21T03:10:45.195Z,13.18
2022-08-21T03:13:12.259Z,13.14
2022-08-21T03:15:41.116Z,13.12
2022-08-21T03:18:10.151Z,13.10
2022-08-21T03:20:38.117Z,13.05
2022-08-21T03:23:12.466Z,13.03
2022-08-21T03:25:41.727Z,12.99
2022-08-21T03:28:13.803Z,12.94
2022-08-21T03:30:46.032Z,12.89
2022-08-21T03:33:15.156Z,12.85
2022-08-21T03:35:48.422Z,12.82
2022-08-21T03:38:15.201Z,12.80
2022-08-21T03:40:43.723Z,12.77
2022-08-21T03:43:10.853Z,12.73
2022-08-21T03:45:39.087Z,12.70
2022-08-21T03:48:06.755Z,12.67
2022-08-21T03:50:40.756Z,12.63
2022-08-21T03:53:17.509Z,12.59
2022-08-21T03:55:50.361Z,12.56
2022-08-21T03:58:19.478Z,12.53
2022-08-21T04:00:48.189Z,12.50
2022-08-21T04:03:14.909Z,12.46
2022-08-21T04:05:42.613Z,12.43
2022-08-21T04:08:09.852Z,12.44
2022-08-21T04:10:38.822Z,12.42
2022-08-21T04:13:06.781Z,12.41
2022-08-21T04:15:33.629Z,12.38
2022-08-21T04:18:00.954Z,12.37
2022-08-21T04:20:28.159Z,12.37
2022-08-21T04:22:55.405Z,12.35
2022-08-21T04:25:23.799Z,12.33
2022-08-21T04:27:50.746Z,12.34
2022-08-21T04:30:17.789Z,12.31
2022-08-21T04:32:47.319Z,12.29
2022-08-21T04:35:19.417Z,12.29
2022-08-21T04:37:46.619Z,12.27
2022-08-21T04:40:16.277Z,12.24
2022-08-21T04:43:05.095Z,12.24
2022-08-21T04:45:38.973Z,12.24
2022-08-21T04:48:13.311Z,12.23
2022-08-21T04:51:03.386Z,12.24
2022-08-21T04:53:35.038Z,12.25
2022-08-21T04:56:24.132Z,12.25
2022-08-21T04:58:53.962Z,12.27
2022-08-21T05:01:23.664Z,12.26
2022-08-21T05:03:55.089Z,12.24
2022-08-21T05:06:22.437Z,12.23
2022-08-21T05:09:01.850Z,12.23
2022-08-21T05:11:31.697Z,12.24
2022-08-21T05:13:58.881Z,12.25
2022-08-21T05:16:36.964Z,12.25
2022-08-21T05:19:06.583Z,12.24
2022-08-21T05:21:34.762Z,12.23
2022-08-21T05:24:01.539Z,12.22
2022-08-21T05:26:28.465Z,12.21
2022-08-21T05:28:55.158Z,12.21
2022-08-21T05:31:24.277Z,12.23
2022-08-21T05:33:52.092Z,12.25
2022-08-21T05:36:19.693Z,12.26
2022-08-21T05:38:46.671Z,12.30
2022-08-21T05:41:13.913Z,12.32
2022-08-21T05:43:40.840Z,12.35
2022-08-21T05:46:08.788Z,12.36
2022-08-21T05:48:36.996Z,12.36
2022-08-21T05:51:12.479Z,12.37
2022-08-21T05:53:39.929Z,12.40
2022-08-21T05:56:07.951Z,12.41
2022-08-21T05:58:35.738Z,12.46
2022-08-21T06:01:03.767Z,12.50
2022-08-21T06:03:33.716Z,12.52
2022-08-21T06:06:00.895Z,12.54
2022-08-21T06:08:28.758Z,12.56
2022-08-21T06:10:58.596Z,12.55
2022-08-21T06:13:27.159Z,12.57
2022-08-21T06:16:26.871Z,12.61
2022-08-21T06:18:53.950Z,12.62
2022-08-21T06:21:20.691Z,12.64
2022-08-21T06:23:47.650Z,12.64
2022-08-21T06:26:15.724Z,12.66
2022-08-21T06:28:43.522Z,12.66
2022-08-21T06:31:19.306Z,12.69
2022-08-21T06:33:46.215Z,12.69
2022-08-21T06:36:13.280Z,12.70
2022-08-21T06:38:40.304Z,12.69
2022-08-21T06:41:08.095Z,12.69
2022-08-21T06:43:39.460Z,12.70
2022-08-21T06:46:08.395Z,12.70
2022-08-21T06:48:35.186Z,12.69
2022-08-21T06:51:02.397Z,12.69
2022-08-21T06:53:29.678Z,12.68
2022-08-21T06:55:56.377Z,12.67
2022-08-21T06:58:23.131Z,12.68
2022-08-21T07:00:52.804Z,12.70
2022-08-21T07:03:31.778Z,12.72
2022-08-21T07:05:59.628Z,12.73
2022-08-21T07:08:27.805Z,12.76
2022-08-21T07:11:03.009Z,12.76
2022-08-21T07:13:30.713Z,12.80
2022-08-21T07:16:01.581Z,12.85
2022-08-21T07:18:30.579Z,12.88
2022-08-21T07:20:57.373Z,12.90
2022-08-21T07:23:28.494Z,12.93
2022-08-21T07:25:56.011Z,12.97
2022-08-21T07:28:23.255Z,13.02
2022-08-21T07:30:55.975Z,13.08
2022-08-21T07:33:22.878Z,13.14
2022-08-21T07:35:49.768Z,13.20
2022-08-21T07:38:16.813Z,13.27
2022-08-21T07:40:44.121Z,13.29
2022-08-21T07:43:10.872Z,13.32
2022-08-21T07:45:38.029Z,13.39
2022-08-21T07:48:05.401Z,13.42
2022-08-21T07:50:32.146Z,13.46
2022-08-21T07:52:58.974Z,13.51
2022-08-21T07:55:25.953Z,13.56
2022-08-21T07:57:52.622Z,13.61
2022-08-21T08:00:23.195Z,13.67
2022-08-21T08:02:53.161Z,13.77
2022-08-21T08:05:22.396Z,13.87
2022-08-21T08:07:49.432Z,13.96
2022-08-21T08:10:19.537Z,14.08
2022-08-21T08:12:46.890Z,14.20
2022-08-21T08:15:19.343Z,14.35
2022-08-21T08:17:46.396Z,14.51
2022-08-21T08:20:15.468Z,14.65
2022-08-21T08:22:43.943Z,14.84
2022-08-21T08:25:18.726Z,15.08
2022-08-21T08:27:45.620Z,15.30
2022-08-21T08:30:14.541Z,15.56
2022-08-21T08:32:42.165Z,15.81
2022-08-21T08:35:10.286Z,16.06
2022-08-21T08:37:41.350Z,16.32
2022-08-21T08:40:16.204Z,16.56
2022-08-21T08:42:43.379Z,16.81
2022-08-21T08:45:17.705Z,16.90
2022-08-21T08:47:58.881Z,16.99
2022-08-21T08:50:46.357Z,17.01
2022-08-21T08:53:18.824Z,17.03
2022-08-21T08:55:47.803Z,16.95
2022-08-21T08:58:24.674Z,16.96
2022-08-21T09:00:55.130Z,16.92
2022-08-21T09:03:24.408Z,16.91
2022-08-21T09:06:30.175Z,16.90
2022-08-21T09:09:30.013Z,17.00
2022-08-21T09:12:11.803Z,17.18
2022-08-21T09:14:38.620Z,17.39
2022-08-21T09:17:19.261Z,17.35
2022-08-21T09:19:47.136Z,17.25
2022-08-21T09:22:55.197Z,17.51
2022-08-21T09:25:22.083Z,17.77
2022-08-21T09:27:52.748Z,17.93
2022-08-21T09:30:24.779Z,18.07
2022-08-21T09:32:51.637Z,18.27
2022-08-21T09:35:23.656Z,18.55
2022-08-21T09:37:50.504Z,18.76
2022-08-21T09:40:27.231Z,19.03
2022-08-21T09:42:59.963Z,19.12
2022-08-21T09:45:27.585Z,19.00
2022-08-21T09:48:14.459Z,18.93
2022-08-21T09:50:42.888Z,18.94
2022-08-21T09:53:22.593Z,19.02
2022-08-21T09:56:12.751Z,19.12
2022-08-21T09:58:42.541Z,19.23
2022-08-21T10:01:19.955Z,19.38
2022-08-21T10:03:50.816Z,19.36
2022-08-21T10:06:27.743Z,19.61
2022-08-21T10:09:06.581Z,19.76
2022-08-21T10:11:35.449Z,19.94
2022-08-21T10:14:32.821Z,20.17
2022-08-21T10:17:13.813Z,20.21
2022-08-21T10:20:07.887Z,20.15
2022-08-21T10:22:53.646Z,20.06
2022-08-21T10:25:56.420Z,20.12
2022-08-21T10:28:48.137Z,20.43
2022-08-21T10:31:33.002Z,20.56
2022-08-21T10:34:21.421Z,20.51
2022-08-21T10:37:09.991Z,20.64
2022-08-21T10:39:52.688Z,20.75
2022-08-21T10:42:34.271Z,20.78
2022-08-21T10:45:15.092Z,20.91
2022-08-21T10:47:57.407Z,20.97
2022-08-21T10:50:43.000Z,20.95
2022-08-21T10:53:27.994Z,20.94
2022-08-21T10:56:24.190Z,21.01
2022-08-21T10:59:04.195Z,21.25
2022-08-21T11:01:45.923Z,21.31
2022-08-21T11:04:17.094Z,21.43
2022-08-21T11:06:53.552Z,21.68
2022-08-21T11:09:25.223Z,21.88
2022-08-21T11:12:11.605Z,22.07
2022-08-21T11:14:50.312Z,22.25
2022-08-21T11:17:22.794Z,22.45
2022-08-21T11:19:56.140Z,22.63
2022-08-21T11:22:33.173Z,22.83
2022-08-21T11:25:24.205Z,23.34
2022-08-21T11:28:02.463Z,23.86
2022-08-21T11:30:41.086Z,24.28
2022-08-21T11:33:28.681Z,24.52
2022-08-21T11:36:09.885Z,24.94
2022-08-21T11:38:42.513Z,25.34
2022-08-21T11:41:42.289Z,25.57
2022-08-21T11:44:17.661Z,26.10
2022-08-21T11:46:59.961Z,26.75
2022-08-21T11:49:41.921Z,27.23
2022-08-21T11:52:18.354Z,28.02
2022-08-21T11:54:57.317Z,28.67
2022-08-21T11:57:27.764Z,29.32
2022-08-21T12:00:26.054Z,29.96
2022-08-21T12:02:56.858Z,30.42
2022-08-21T12:05:33.074Z,30.62
2022-08-21T12:08:12.026Z,30.96
2022-08-21T12:10:42.572Z,31.52
2022-08-21T12:13:22.891Z,32.23
2022-08-21T12:16:15.201Z,32.76
2022-08-21T12:18:43.547Z,32.40
2022-08-21T12:21:29.657Z,32.53
2022-08-21T12:24:28.788Z,32.85
2022-08-21T12:27:02.362Z,32.80
2022-08-21T12:29:38.466Z,32.86
2022-08-21T12:32:11.083Z,33.22
2022-08-21T12:34:48.509Z,33.46
2022-08-21T12:37:30.393Z,33.67
2022-08-21T12:40:01.760Z,33.31
2022-08-21T12:42:39.767Z,32.49
2022-08-21T12:45:36.266Z,32.04
2022-08-21T12:48:15.675Z,32.01
2022-08-21T12:50:49.424Z,32.17
2022-08-21T12:53:20.891Z,32.51
2022-08-21T12:55:49.012Z,32.40
2022-08-21T12:58:20.192Z,31.93
2022-08-21T13:00:53.475Z,32.01
2022-08-21T13:03:20.922Z,32.60
2022-08-21T13:05:48.162Z,33.05
2022-08-21T13:08:15.660Z,33.50
2022-08-21T13:10:42.873Z,33.33
2022-08-21T13:13:25.532Z,33.41
2022-08-21T13:16:08.053Z,33.09
2022-08-21T13:18:57.994Z,32.78
2022-08-21T13:21:47.702Z,33.31
2022-08-21T13:24:43.727Z,34.11
2022-08-21T13:27:27.388Z,34.48
2022-08-21T13:30:14.810Z,34.87
2022-08-21T13:32:44.411Z,35.05
2022-08-21T13:35:36.527Z,35.32
2022-08-21T13:38:05.610Z,35.74
2022-08-21T13:40:50.468Z,35.87
2022-08-21T13:43:21.962Z,36.19
2022-08-21T13:45:52.284Z,36.50
2022-08-21T13:48:20.532Z,36.46
2022-08-21T13:50:47.887Z,36.54
2022-08-21T13:53:45.925Z,36.03
2022-08-21T13:56:29.203Z,35.74
2022-08-21T13:58:57.874Z,34.94
2022-08-21T14:01:55.794Z,33.26
2022-08-21T14:04:26.282Z,31.91
2022-08-21T14:06:54.257Z,30.45
2022-08-21T14:09:46.048Z,29.48
2022-08-21T14:13:04.740Z,29.67
2022-08-21T14:16:31.519Z,30.95
2022-08-21T14:19:21.107Z,30.77
2022-08-21T14:22:46.302Z,29.44
2022-08-21T14:29:44.582Z,27.45
2022-08-21T14:33:11.163Z,26.83
2022-08-21T14:40:31.980Z,25.70
2022-08-21T14:44:05.960Z,25.45
2022-08-21T14:47:34.952Z,25.32
2022-08-21T14:51:01.435Z,25.08
2022-08-21T14:58:20.094Z,24.61
2022-08-21T15:01:46.609Z,24.61
2022-08-21T15:09:06.129Z,24.94
2022-08-21T15:12:32.731Z,25.54
2022-08-21T18:01:44.551Z,23.76
2022-08-21T18:04:12.197Z,23.44
2022-08-21T18:06:38.925Z,23.03
2022-08-21T18:09:07.483Z,22.74
2022-08-21T18:11:35.695Z,22.18
2022-08-21T18:14:07.819Z,21.92
2022-08-21T18:16:36.149Z,21.66
2022-08-21T18:19:05.922Z,21.44
2022-08-21T18:21:32.682Z,21.28
2022-08-21T18:23:59.627Z,21.13
2022-08-21T18:26:30.955Z,21.01
2022-08-21T18:29:00.685Z,21.02
2022-08-21T18:31:32.205Z,20.96
2022-08-21T18:34:09.568Z,20.92
2022-08-21T18:36:36.342Z,20.84
2022-08-21T18:39:25.619Z,20.74
2022-08-21T18:41:51.904Z,20.57
2022-08-21T18:44:22.048Z,20.37
2022-08-21T18:46:54.317Z,20.20
2022-08-21T18:49:21.226Z,20.10
2022-08-21T18:51:49.314Z,19.95
2022-08-21T18:54:17.019Z,19.74
2022-08-21T18:56:44.628Z,19.56
2022-08-21T18:59:13.070Z,19.51
2022-08-21T19:01:41.517Z,19.36
2022-08-21T19:04:15.009Z,19.25
2022-08-21T19:06:52.605Z,19.13
2022-08-21T19:09:20.388Z,19.10
2022-08-21T19:11:49.457Z,19.09
2022-08-21T19:14:19.016Z,18.97
2022-08-21T19:16:50.201Z,18.98
2022-08-21T19:19:18.278Z,18.94
2022-08-21T19:21:49.532Z,18.91
2022-08-21T19:24:17.334Z,18.87
2022-08-21T19:26:45.635Z,18.81
2022-08-21T19:29:18.525Z,18.68
2022-08-21T19:31:46.616Z,18.65
2022-08-21T19:34:26.580Z,18.56
2022-08-21T19:36:57.827Z,18.52
2022-08-21T19:39:24.858Z,18.45
2022-08-21T19:41:58.020Z,18.36
2022-08-21T19:44:28.327Z,18.34
2022-08-21T19:46:58.134Z,18.34
2022-08-21T19:52:19.120Z,18.30
2022-08-21T19:54:46.597Z,18.31
2022-08-21T19:57:13.463Z,18.27
2022-08-21T19:59:41.487Z,18.27
2022-08-21T20:02:10.575Z,18.32
2022-08-21T20:04:37.855Z,18.33
2022-08-21T20:07:08.205Z,18.38
2022-08-21T20:09:53.090Z,18.41
2022-08-21T20:12:20.297Z,18.41
2022-08-21T20:14:50.302Z,18.39
2022-08-21T20:17:18.911Z,18.40
2022-08-21T20:19:51.288Z,18.38
2022-08-21T20:22:21.181Z,18.35
2022-08-21T20:24:48.394Z,18.27
2022-08-21T20:27:21.731Z,18.18
2022-08-21T20:29:50.025Z,18.16
2022-08-21T20:32:17.283Z,18.13
2022-08-21T20:34:45.255Z,18.13
2022-08-21T20:37:12.603Z,18.04
2022-08-21T20:39:40.986Z,18.04
2022-08-21T20:42:10.575Z,18.05
2022-08-21T20:44:38.200Z,18.05
2022-08-21T20:47:14.000Z,18.06
2022-08-21T20:49:48.457Z,17.90
2022-08-21T20:52:17.994Z,17.87
2022-08-21T20:55:00.685Z,17.84
2022-08-21T20:57:46.343Z,17.77
2022-08-21T21:00:22.918Z,17.79
2022-08-21T21:03:01.513Z,17.77
2022-08-21T21:05:36.743Z,17.76
2022-08-21T21:08:18.931Z,17.72
2022-08-21T21:10:55.481Z,17.66
2022-08-21T21:13:44.078Z,17.68
2022-08-21T21:16:16.805Z,17.74
2022-08-21T21:18:49.917Z,17.77
2022-08-21T21:21:33.276Z,17.78
2022-08-21T21:24:07.916Z,17.79
2022-08-21T21:26:46.268Z,17.77
2022-08-21T21:30:04.700Z,17.78
2022-08-21T21:37:31.535Z,17.81
2022-08-21T21:40:32.927Z,17.81
2022-08-21T21:43:42.066Z,17.82
2022-08-21T21:46:34.730Z,17.85
2022-08-21T21:49:53.562Z,17.73
2022-08-21T21:52:37.348Z,17.77
2022-08-21T21:55:26.223Z,17.76
2022-08-21T21:58:07.764Z,17.78
2022-08-21T22:00:52.255Z,17.79
2022-08-21T22:03:43.411Z,17.76
2022-08-21T22:06:24.879Z,17.74
2022-08-21T22:09:10.328Z,17.66
2022-08-21T22:12:42.122Z,17.61
2022-08-21T22:16:16.398Z,17.60
2022-08-21T22:23:45.825Z,17.62
2022-08-21T22:27:13.229Z,17.64
2022-08-21T22:30:03.712Z,17.62
2022-08-21T22:33:30.484Z,17.51
2022-08-21T22:36:57.073Z,17.53
2022-08-21T22:40:26.872Z,17.56
2022-08-21T22:43:28.634Z,17.54
2022-08-21T22:46:39.392Z,17.55
2022-08-21T22:49:49.057Z,17.45
